Terminal Aerodrome Forecast
Issued by NWS Corpus Christi, TX

Home | Current Version | Previous Version | Text Only | Print | Product List | Glossary On
Versions: 1 2 3 4 5 6 7 8 9 10 11 12 13 14
167
FTUS44 KCRP 060954 AAA
TAFVCT
TAF AMD
KVCT 060954Z 0610/0706 VRB03KT P6SM VCTS FEW025CB SCT040 BKN120
     FM061200 33007KT P6SM SCT025 BKN150
     FM061500 32015G26KT P6SM SKC
     FM070000 35006KT P6SM SKC=

USA.gov is the U.S. government's official web portal to all federal, state and local government web resources and services.